Captain Jimmy T Moran — WDE6653 — position and weather

sailwx.info

Track history (hours):
 
Tides and Currents Weather Stations Pressure Air Temp Water Temp Dewpoint Dewpoint Depression Visibility Wind Speed Wind Dir Waves Ship Positions

Captain Jimmy T Moran

Owner: Moran Towing Corp, New Cannan, CT. More information available from US FCC via Universal Licensing System and Coast Guard Vessel Documentation Center.

Last reported at 2016-Jul-23 22:33 UTC. Time now 2016-Jul-23 23:09 UTC.
Position N 29°55' W 090°06'.

Length 26 m; draft 4.9 m.

Type: Tug. MMSI: 367382920.

Date/timePositionNaut miles runAvg speedWind from/ knotsBaromVisibWave heightAir tempDewpointWater temp
2016-Jul-23 22:33N 29°55' W 090°06'0 0.0
2016-Jul-23 21:33N 29°55' W 090°06'0 0.0
2016-Jul-23 20:33N 29°55' W 090°06'0 0.0
2016-Jul-23 19:33N 29°55' W 090°06'0 0.0
2016-Jul-23 18:34N 29°55' W 090°06'0 0.0
2016-Jul-23 17:33N 29°55' W 090°06'0 0.0
2016-Jul-23 16:33N 29°55' W 090°06'0 0.0
2016-Jul-23 15:33N 29°55' W 090°06'0 0.0
2016-Jul-23 14:33N 29°55' W 090°06'0 0.0
2016-Jul-23 13:33N 29°55' W 090°06'0 0.0
2016-Jul-23 12:33N 29°55' W 090°06'0 0.0
2016-Jul-23 11:33N 29°55' W 090°06'0 0.0
2016-Jul-23 10:33N 29°55' W 090°06'0 0.0
2016-Jul-23 09:33N 29°55' W 090°06'0 0.0
2016-Jul-23 08:33N 29°55' W 090°06'0 0.0
2016-Jul-23 07:33N 29°55' W 090°06'0 0.0
2016-Jul-23 06:33N 29°55' W 090°06'0 0.0
2016-Jul-23 04:34N 29°55' W 090°06'0 0.0
2016-Jul-23 03:33N 29°55' W 090°06'0 0.0
2016-Jul-23 02:33N 29°55' W 090°06'0 0.0
2016-Jul-23 01:33N 29°55' W 090°06'0 0.0
2016-Jul-23 00:33N 29°55' W 090°06'0 0.0
2016-Jul-22 23:33N 29°55' W 090°06'0 0.0
2016-Jul-22 22:33N 29°55' W 090°06'0 0.0
2016-Jul-22 21:33N 29°55' W 090°06'0 0.0
2016-Jul-22 20:33N 29°55' W 090°06'0 0.0
2016-Jul-22 19:33N 29°55' W 090°06'0 0.0
2016-Jul-22 18:33N 29°55' W 090°06'0 0.0
2016-Jul-22 17:33N 29°55' W 090°06'0 0.0
2016-Jul-22 16:33N 29°55' W 090°06'0 0.0
2016-Jul-22 15:33N 29°55' W 090°06'0 0.0
2016-Jul-22 14:33N 29°55' W 090°06'0 0.0
2016-Jul-22 13:33N 29°55' W 090°06'0 0.0
2016-Jul-22 12:33N 29°55' W 090°06'0 0.0
2016-Jul-22 11:33N 29°55' W 090°06'0 0.0
2016-Jul-22 10:33N 29°55' W 090°06'0 0.0
2016-Jul-22 09:33N 29°55' W 090°06'0 0.0
2016-Jul-22 08:33N 29°55' W 090°06'0 0.0
2016-Jul-22 07:33N 29°55' W 090°06'0 0.0
2016-Jul-22 05:33N 29°55' W 090°06'0 0.0
2016-Jul-22 04:33N 29°55' W 090°06'0 0.0
2016-Jul-22 03:33N 29°55' W 090°06'0 0.0
2016-Jul-22 02:33N 29°55' W 090°06'3 2.9
2016-Jul-22 01:33N 29°57' W 090°09'2 2.4
2016-Jul-22 00:33N 29°55' W 090°07'1 1.0
2016-Jul-21 23:33N 29°55' W 090°06'0 0.0
2016-Jul-21 22:33N 29°55' W 090°06'0 0.0
2016-Jul-21 21:33N 29°55' W 090°06'1 1.5
2016-Jul-21 20:34N 29°55' W 090°04'2 2.2
2016-Jul-21 19:33N 29°57' W 090°03'3 2.6
2016-Jul-21 18:33N 29°55' W 090°05'1 0.9
2016-Jul-21 17:33N 29°55' W 090°06'0 0.0
2016-Jul-21 14:31N 29°55' W 090°06'0 0.0
2016-Jul-21 13:33N 29°55' W 090°06'0 0.0
2016-Jul-21 12:25N 29°55' W 090°06'0 0.0
2016-Jul-21 11:06N 29°55' W 090°06'0 0.0
2016-Jul-21 10:33N 29°55' W 090°06'0 0.0
2016-Jul-21 09:33N 29°55' W 090°06'0 0.0
2016-Jul-21 08:31N 29°55' W 090°06'0 0.0
2016-Jul-21 07:18N 29°55' W 090°06'0 0.0
2016-Jul-21 06:33N 29°55' W 090°06'0 0.0
2016-Jul-21 05:33N 29°55' W 090°06'0 0.0
2016-Jul-21 04:33N 29°55' W 090°06'0 0.0
2016-Jul-21 03:33N 29°55' W 090°06'0 0.0
2016-Jul-21 02:33N 29°55' W 090°06'0 0.0
2016-Jul-21 01:33N 29°55' W 090°06'0 0.0
2016-Jul-21 00:14N 29°55' W 090°06'1 1.1
2016-Jul-20 23:33N 29°55' W 090°05'4 4.3
2016-Jul-20 22:33N 29°57' W 090°01'0 0.0
2016-Jul-20 21:33N 29°57' W 090°01'0 0.0
2016-Jul-20 20:33N 29°57' W 090°01'0 0.0
2016-Jul-20 19:33N 29°57' W 090°01'0 0.0
2016-Jul-20 18:33N 29°57' W 090°01'0 0.0
2016-Jul-20 17:33N 29°57' W 090°01'0 0.0
2016-Jul-20 16:33N 29°57' W 090°01'0 0.0
2016-Jul-20 15:33N 29°57' W 090°01'5 4.7
2016-Jul-20 14:32N 29°55' W 090°06'0 0.0
2016-Jul-20 13:33N 29°55' W 090°06'0 0.0
2016-Jul-20 12:32N 29°55' W 090°06'0 0.0
2016-Jul-20 11:23N 29°55' W 090°06'0 0.0
2016-Jul-20 09:12N 29°55' W 090°06'0 0.8
2016-Jul-20 08:33N 29°55' W 090°07'2 2.0
2016-Jul-20 07:34N 29°55' W 090°04'2 2.3
2016-Jul-20 06:34N 29°57' W 090°03'0 0.0
2016-Jul-20 05:33N 29°57' W 090°03'0 0.0
2016-Jul-20 04:33N 29°57' W 090°03'0 0.0
2016-Jul-20 03:33N 29°57' W 090°03'0 0.0
2016-Jul-20 02:33N 29°57' W 090°03'0 0.0
2016-Jul-20 01:33N 29°57' W 090°03'0 0.0
2016-Jul-20 00:33N 29°57' W 090°03'0 0.0
2016-Jul-19 23:33N 29°57' W 090°03'0 0.0
2016-Jul-19 22:33N 29°57' W 090°03'0 0.0
2016-Jul-19 21:33N 29°57' W 090°03'0 0.0
2016-Jul-19 20:33N 29°57' W 090°03'0 0.0
2016-Jul-19 19:33N 29°57' W 090°03'0 0.0
2016-Jul-19 18:33N 29°57' W 090°03'0 0.0
2016-Jul-19 17:33N 29°57' W 090°03'0 0.0
2016-Jul-19 16:33N 29°57' W 090°03'0 0.0
2016-Jul-19 15:33N 29°57' W 090°03'0 0.0
2016-Jul-19 14:33N 29°57' W 090°03'0 0.5
2016-Jul-19 13:33N 29°57' W 090°03'3 2.9
2016-Jul-19 12:33N 29°55' W 090°06'0 0.0
2016-Jul-19 11:33N 29°55' W 090°06'0 0.0
2016-Jul-19 10:33N 29°55' W 090°06'0 0.0
2016-Jul-19 09:32N 29°55' W 090°06'0 0.4
2016-Jul-19 08:33N 29°55' W 090°06'0 0.3
2016-Jul-19 07:33N 29°55' W 090°06'1 0.2
2016-Jul-19 04:34N 29°55' W 090°07'1 0.5
2016-Jul-19 03:33N 29°55' W 090°06'0 0.0
2016-Jul-19 02:33N 29°55' W 090°06'0 0.0
2016-Jul-19 01:31N 29°55' W 090°06'0 0.0
2016-Jul-18 23:06N 29°55' W 090°06'0 0.7
2016-Jul-18 22:33N 29°55' W 090°06'2 1.8
2016-Jul-18 21:33N 29°55' W 090°04'0 0.0
2016-Jul-18 20:33N 29°55' W 090°04'0 0.0
2016-Jul-18 19:34N 29°55' W 090°04'2 1.6
2016-Jul-18 18:33N 29°57' W 090°03'0 0.1
2016-Jul-18 17:34N 29°57' W 090°03'3 3.2
2016-Jul-18 16:33N 29°55' W 090°06'0 0.0
2016-Jul-18 15:33N 29°55' W 090°06'0 0.0
2016-Jul-18 14:33N 29°55' W 090°06'0 0.0
2016-Jul-18 13:33N 29°55' W 090°06'0 0.0
2016-Jul-18 04:33N 29°55' W 090°06'0 0.0
2016-Jul-18 03:33N 29°55' W 090°06'0 0.0
2016-Jul-18 02:33N 29°55' W 090°06'0 0.0
2016-Jul-18 01:33N 29°55' W 090°06'1 0.5
2016-Jul-18 00:33N 29°55' W 090°07'1 0.6
2016-Jul-17 23:33N 29°55' W 090°06'0 0.0
2016-Jul-17 22:33N 29°55' W 090°06'0 0.0
2016-Jul-17 21:33N 29°55' W 090°06'0 0.3
2016-Jul-17 20:25N 29°55' W 090°06'0 0.4
2016-Jul-17 19:30N 29°55' W 090°06'0 0.0
2016-Jul-17 18:29N 29°55' W 090°06'0 0.0
2016-Jul-17 17:33N 29°55' W 090°06'0 0.0
2016-Jul-17 16:33N 29°55' W 090°06'0 0.0
2016-Jul-17 15:33N 29°55' W 090°06'1 1.0
2016-Jul-17 14:33N 29°55' W 090°07'1 1.0
2016-Jul-17 13:33N 29°55' W 090°06'0 0.0
2016-Jul-17 12:33N 29°55' W 090°06'0 0.0
2016-Jul-17 11:33N 29°55' W 090°06'0 0.0
2016-Jul-17 10:33N 29°55' W 090°06'1 0.6
2016-Jul-17 09:33N 29°55' W 090°07'0 0.5
2016-Jul-17 08:33N 29°55' W 090°06'0 0.0
2016-Jul-17 07:33N 29°55' W 090°06'6 6.0
2016-Jul-17 06:33N 29°56' W 089°59'5 0.3
2016-Jul-16 15:34N 29°51' W 089°59'1 0.3
2016-Jul-16 10:33N 29°53' W 089°58'3 0.2
2016-Jul-15 21:33N 29°55' W 089°57'4 1.8
2016-Jul-15 19:28N 29°52' W 089°55'11 0.8
2016-Jul-15 06:23N 29°42' W 089°59'0 0.0
2016-Jul-15 05:33N 29°42' W 089°59'0 0.0
2016-Jul-15 04:31N 29°42' W 089°59'0 0.0
2016-Jul-15 03:08N 29°42' W 089°59'8 0.5
2016-Jul-14 09:32N 29°50' W 089°60'6 5.7
2016-Jul-14 08:32N 29°55' W 089°58'7 7.0
2016-Jul-14 07:34N 29°55' W 090°06'0 0.0
2016-Jul-14 06:33N 29°55' W 090°06'0 0.0
2016-Jul-14 05:33N 29°55' W 090°06'0 0.0
2016-Jul-14 04:34N 29°55' W 090°06'0 0.0
2016-Jul-14 03:33N 29°55' W 090°06'0 0.0
2016-Jul-14 02:33N 29°55' W 090°06'0 0.0
2016-Jul-14 01:34N 29°55' W 090°06'0 0.0
2016-Jul-14 00:34N 29°55' W 090°06'1 0.6
2016-Jul-13 23:33N 29°55' W 090°07'  
Track history (hours):
 
Tides and Currents Weather Stations Pressure Air Temp Water Temp Dewpoint Dewpoint Depression Visibility Wind Speed Wind Dir Waves Ship Positions

Captain Jimmy T Moran

Owner: Moran Towing Corp, New Cannan, CT. More information available from US FCC via Universal Licensing System and Coast Guard Vessel Documentation Center.

Last reported at 2016-Jul-23 22:33 UTC. Time now 2016-Jul-23 23:09 UTC.
Position N 29°55' W 090°06'.

Length 26 m; draft 4.9 m.

Type: Tug. MMSI: 367382920.

Date/timePositionNaut miles runAvg speedWind from/ knotsBaromVisibWave heightAir tempDewpointWater temp
2016-Jul-23 22:33N 29°55' W 090°06'0 0.0
2016-Jul-23 21:33N 29°55' W 090°06'0 0.0
2016-Jul-23 20:33N 29°55' W 090°06'0 0.0
2016-Jul-23 19:33N 29°55' W 090°06'0 0.0
2016-Jul-23 18:34N 29°55' W 090°06'0 0.0
2016-Jul-23 17:33N 29°55' W 090°06'0 0.0
2016-Jul-23 16:33N 29°55' W 090°06'0 0.0
2016-Jul-23 15:33N 29°55' W 090°06'0 0.0
2016-Jul-23 14:33N 29°55' W 090°06'0 0.0
2016-Jul-23 13:33N 29°55' W 090°06'0 0.0
2016-Jul-23 12:33N 29°55' W 090°06'0 0.0
2016-Jul-23 11:33N 29°55' W 090°06'0 0.0
2016-Jul-23 10:33N 29°55' W 090°06'0 0.0
2016-Jul-23 09:33N 29°55' W 090°06'0 0.0
2016-Jul-23 08:33N 29°55' W 090°06'0 0.0
2016-Jul-23 07:33N 29°55' W 090°06'0 0.0
2016-Jul-23 06:33N 29°55' W 090°06'0 0.0
2016-Jul-23 04:34N 29°55' W 090°06'0 0.0
2016-Jul-23 03:33N 29°55' W 090°06'0 0.0
2016-Jul-23 02:33N 29°55' W 090°06'0 0.0
2016-Jul-23 01:33N 29°55' W 090°06'0 0.0
2016-Jul-23 00:33N 29°55' W 090°06'0 0.0
2016-Jul-22 23:33N 29°55' W 090°06'0 0.0
2016-Jul-22 22:33N 29°55' W 090°06'0 0.0
2016-Jul-22 21:33N 29°55' W 090°06'0 0.0
2016-Jul-22 20:33N 29°55' W 090°06'0 0.0
2016-Jul-22 19:33N 29°55' W 090°06'0 0.0
2016-Jul-22 18:33N 29°55' W 090°06'0 0.0
2016-Jul-22 17:33N 29°55' W 090°06'0 0.0
2016-Jul-22 16:33N 29°55' W 090°06'0 0.0
2016-Jul-22 15:33N 29°55' W 090°06'0 0.0
2016-Jul-22 14:33N 29°55' W 090°06'0 0.0
2016-Jul-22 13:33N 29°55' W 090°06'0 0.0
2016-Jul-22 12:33N 29°55' W 090°06'0 0.0
2016-Jul-22 11:33N 29°55' W 090°06'0 0.0
2016-Jul-22 10:33N 29°55' W 090°06'0 0.0
2016-Jul-22 09:33N 29°55' W 090°06'0 0.0
2016-Jul-22 08:33N 29°55' W 090°06'0 0.0
2016-Jul-22 07:33N 29°55' W 090°06'0 0.0
2016-Jul-22 05:33N 29°55' W 090°06'0 0.0
2016-Jul-22 04:33N 29°55' W 090°06'0 0.0
2016-Jul-22 03:33N 29°55' W 090°06'0 0.0
2016-Jul-22 02:33N 29°55' W 090°06'3 2.9
2016-Jul-22 01:33N 29°57' W 090°09'2 2.4
2016-Jul-22 00:33N 29°55' W 090°07'1 1.0
2016-Jul-21 23:33N 29°55' W 090°06'0 0.0
2016-Jul-21 22:33N 29°55' W 090°06'0 0.0
2016-Jul-21 21:33N 29°55' W 090°06'1 1.5
2016-Jul-21 20:34N 29°55' W 090°04'2 2.2
2016-Jul-21 19:33N 29°57' W 090°03'3 2.6
2016-Jul-21 18:33N 29°55' W 090°05'1 0.9
2016-Jul-21 17:33N 29°55' W 090°06'0 0.0
2016-Jul-21 14:31N 29°55' W 090°06'0 0.0
2016-Jul-21 13:33N 29°55' W 090°06'0 0.0
2016-Jul-21 12:25N 29°55' W 090°06'0 0.0
2016-Jul-21 11:06N 29°55' W 090°06'0 0.0
2016-Jul-21 10:33N 29°55' W 090°06'0 0.0
2016-Jul-21 09:33N 29°55' W 090°06'0 0.0
2016-Jul-21 08:31N 29°55' W 090°06'0 0.0
2016-Jul-21 07:18N 29°55' W 090°06'0 0.0
2016-Jul-21 06:33N 29°55' W 090°06'0 0.0
2016-Jul-21 05:33N 29°55' W 090°06'0 0.0
2016-Jul-21 04:33N 29°55' W 090°06'0 0.0
2016-Jul-21 03:33N 29°55' W 090°06'0 0.0
2016-Jul-21 02:33N 29°55' W 090°06'0 0.0
2016-Jul-21 01:33N 29°55' W 090°06'0 0.0
2016-Jul-21 00:14N 29°55' W 090°06'1 1.1
2016-Jul-20 23:33N 29°55' W 090°05'4 4.3
2016-Jul-20 22:33N 29°57' W 090°01'0 0.0
2016-Jul-20 21:33N 29°57' W 090°01'0 0.0
2016-Jul-20 20:33N 29°57' W 090°01'0 0.0
2016-Jul-20 19:33N 29°57' W 090°01'0 0.0
2016-Jul-20 18:33N 29°57' W 090°01'0 0.0
2016-Jul-20 17:33N 29°57' W 090°01'0 0.0
2016-Jul-20 16:33N 29°57' W 090°01'0 0.0
2016-Jul-20 15:33N 29°57' W 090°01'5 4.7
2016-Jul-20 14:32N 29°55' W 090°06'0 0.0
2016-Jul-20 13:33N 29°55' W 090°06'0 0.0
2016-Jul-20 12:32N 29°55' W 090°06'0 0.0
2016-Jul-20 11:23N 29°55' W 090°06'0 0.0
2016-Jul-20 09:12N 29°55' W 090°06'0 0.8
2016-Jul-20 08:33N 29°55' W 090°07'2 2.0
2016-Jul-20 07:34N 29°55' W 090°04'2 2.3
2016-Jul-20 06:34N 29°57' W 090°03'0 0.0
2016-Jul-20 05:33N 29°57' W 090°03'0 0.0
2016-Jul-20 04:33N 29°57' W 090°03'0 0.0
2016-Jul-20 03:33N 29°57' W 090°03'0 0.0
2016-Jul-20 02:33N 29°57' W 090°03'0 0.0
2016-Jul-20 01:33N 29°57' W 090°03'0 0.0
2016-Jul-20 00:33N 29°57' W 090°03'0 0.0
2016-Jul-19 23:33N 29°57' W 090°03'0 0.0
2016-Jul-19 22:33N 29°57' W 090°03'0 0.0
2016-Jul-19 21:33N 29°57' W 090°03'0 0.0
2016-Jul-19 20:33N 29°57' W 090°03'0 0.0
2016-Jul-19 19:33N 29°57' W 090°03'0 0.0
2016-Jul-19 18:33N 29°57' W 090°03'0 0.0
2016-Jul-19 17:33N 29°57' W 090°03'0 0.0
2016-Jul-19 16:33N 29°57' W 090°03'0 0.0
2016-Jul-19 15:33N 29°57' W 090°03'0 0.0
2016-Jul-19 14:33N 29°57' W 090°03'0 0.5
2016-Jul-19 13:33N 29°57' W 090°03'3 2.9
2016-Jul-19 12:33N 29°55' W 090°06'0 0.0
2016-Jul-19 11:33N 29°55' W 090°06'0 0.0
2016-Jul-19 10:33N 29°55' W 090°06'0 0.0
2016-Jul-19 09:32N 29°55' W 090°06'0 0.4
2016-Jul-19 08:33N 29°55' W 090°06'0 0.3
2016-Jul-19 07:33N 29°55' W 090°06'1 0.2
2016-Jul-19 04:34N 29°55' W 090°07'1 0.5
2016-Jul-19 03:33N 29°55' W 090°06'0 0.0
2016-Jul-19 02:33N 29°55' W 090°06'0 0.0
2016-Jul-19 01:31N 29°55' W 090°06'0 0.0
2016-Jul-18 23:06N 29°55' W 090°06'0 0.7
2016-Jul-18 22:33N 29°55' W 090°06'2 1.8
2016-Jul-18 21:33N 29°55' W 090°04'0 0.0
2016-Jul-18 20:33N 29°55' W 090°04'0 0.0
2016-Jul-18 19:34N 29°55' W 090°04'2 1.6
2016-Jul-18 18:33N 29°57' W 090°03'0 0.1
2016-Jul-18 17:34N 29°57' W 090°03'3 3.2
2016-Jul-18 16:33N 29°55' W 090°06'0 0.0
2016-Jul-18 15:33N 29°55' W 090°06'0 0.0
2016-Jul-18 14:33N 29°55' W 090°06'0 0.0
2016-Jul-18 13:33N 29°55' W 090°06'0 0.0
2016-Jul-18 04:33N 29°55' W 090°06'0 0.0
2016-Jul-18 03:33N 29°55' W 090°06'0 0.0
2016-Jul-18 02:33N 29°55' W 090°06'0 0.0
2016-Jul-18 01:33N 29°55' W 090°06'1 0.5
2016-Jul-18 00:33N 29°55' W 090°07'1 0.6
2016-Jul-17 23:33N 29°55' W 090°06'0 0.0
2016-Jul-17 22:33N 29°55' W 090°06'0 0.0
2016-Jul-17 21:33N 29°55' W 090°06'0 0.3
2016-Jul-17 20:25N 29°55' W 090°06'0 0.4
2016-Jul-17 19:30N 29°55' W 090°06'0 0.0
2016-Jul-17 18:29N 29°55' W 090°06'0 0.0
2016-Jul-17 17:33N 29°55' W 090°06'0 0.0
2016-Jul-17 16:33N 29°55' W 090°06'0 0.0
2016-Jul-17 15:33N 29°55' W 090°06'1 1.0
2016-Jul-17 14:33N 29°55' W 090°07'1 1.0
2016-Jul-17 13:33N 29°55' W 090°06'0 0.0
2016-Jul-17 12:33N 29°55' W 090°06'0 0.0
2016-Jul-17 11:33N 29°55' W 090°06'0 0.0
2016-Jul-17 10:33N 29°55' W 090°06'1 0.6
2016-Jul-17 09:33N 29°55' W 090°07'0 0.5
2016-Jul-17 08:33N 29°55' W 090°06'0 0.0
2016-Jul-17 07:33N 29°55' W 090°06'6 6.0
2016-Jul-17 06:33N 29°56' W 089°59'5 0.3
2016-Jul-16 15:34N 29°51' W 089°59'1 0.3
2016-Jul-16 10:33N 29°53' W 089°58'3 0.2
2016-Jul-15 21:33N 29°55' W 089°57'4 1.8
2016-Jul-15 19:28N 29°52' W 089°55'11 0.8
2016-Jul-15 06:23N 29°42' W 089°59'0 0.0
2016-Jul-15 05:33N 29°42' W 089°59'0 0.0
2016-Jul-15 04:31N 29°42' W 089°59'0 0.0
2016-Jul-15 03:08N 29°42' W 089°59'8 0.5
2016-Jul-14 09:32N 29°50' W 089°60'6 5.7
2016-Jul-14 08:32N 29°55' W 089°58'7 7.0
2016-Jul-14 07:34N 29°55' W 090°06'0 0.0
2016-Jul-14 06:33N 29°55' W 090°06'0 0.0
2016-Jul-14 05:33N 29°55' W 090°06'0 0.0
2016-Jul-14 04:34N 29°55' W 090°06'0 0.0
2016-Jul-14 03:33N 29°55' W 090°06'0 0.0
2016-Jul-14 02:33N 29°55' W 090°06'0 0.0
2016-Jul-14 01:34N 29°55' W 090°06'0 0.0
2016-Jul-14 00:34N 29°55' W 090°06'1 0.6
2016-Jul-13 23:33N 29°55' W 090°07'  

Dump ship's entire track history